createdAt,value
2023-04-10T00:00:26.712Z,6.60
2023-04-10T00:05:49.886Z,6.52
2023-04-10T00:10:56.341Z,6.46
2023-04-10T00:15:59.480Z,6.37
2023-04-10T00:21:04.046Z,6.30
2023-04-10T00:26:07.428Z,6.26
2023-04-10T00:31:10.672Z,6.20
2023-04-10T00:36:13.996Z,6.19
2023-04-10T00:41:17.073Z,6.19
2023-04-10T00:46:20.623Z,6.22
2023-04-10T00:51:23.988Z,6.24
2023-04-10T00:56:27.315Z,6.28
2023-04-10T01:01:31.157Z,6.28
2023-04-10T01:06:50.411Z,6.29
2023-04-10T01:12:18.411Z,6.31
2023-04-10T01:17:39.922Z,6.26
2023-04-10T01:23:21.543Z,6.16
2023-04-10T01:28:47.283Z,6.15
2023-04-10T01:33:58.634Z,6.20
2023-04-10T01:39:03.952Z,6.06
2023-04-10T01:44:09.363Z,5.95
2023-04-10T01:49:14.129Z,5.92
2023-04-10T01:54:18.071Z,5.95
2023-04-10T01:59:22.047Z,6.07
2023-04-10T02:04:28.653Z,6.16
2023-04-10T02:09:58.432Z,6.20
2023-04-10T02:15:06.563Z,6.15
2023-04-10T02:20:11.840Z,6.17
2023-04-10T02:25:15.747Z,6.16
2023-04-10T02:30:18.839Z,6.05
2023-04-10T02:35:22.381Z,5.98
2023-04-10T02:40:25.455Z,6.02
2023-04-10T02:45:28.478Z,6.05
2023-04-10T02:50:32.690Z,5.98
2023-04-10T02:55:35.702Z,6.00
2023-04-10T03:00:39.624Z,5.90
2023-04-10T03:05:42.725Z,5.66
2023-04-10T03:10:48.867Z,5.49
2023-04-10T03:15:52.039Z,5.31
2023-04-10T03:20:55.732Z,5.17
2023-04-10T03:25:58.943Z,5.19
2023-04-10T03:31:03.799Z,5.23
2023-04-10T03:36:07.924Z,5.14
2023-04-10T03:41:11.390Z,4.95
2023-04-10T03:46:14.536Z,4.82
2023-04-10T03:51:17.676Z,4.89
2023-04-10T03:56:20.976Z,4.81
2023-04-10T04:01:24.093Z,4.79
2023-04-10T04:06:27.678Z,4.72
2023-04-10T04:11:31.625Z,4.72
2023-04-10T04:16:35.096Z,4.72
2023-04-10T04:21:38.229Z,4.82
2023-04-10T04:26:41.329Z,4.88
2023-04-10T04:31:44.674Z,4.79
2023-04-10T04:36:47.750Z,4.69
2023-04-10T04:41:50.971Z,4.68
2023-04-10T04:46:53.996Z,4.65
2023-04-10T04:51:57.069Z,4.61
2023-04-10T04:57:00.081Z,4.63
2023-04-10T05:02:03.656Z,4.65
2023-04-10T05:07:06.824Z,4.65
2023-04-10T05:12:09.905Z,4.60
2023-04-10T05:17:12.931Z,4.64
2023-04-10T05:22:18.519Z,4.53
2023-04-10T05:27:22.536Z,4.48
2023-04-10T05:32:25.676Z,4.39
2023-04-10T05:37:29.021Z,4.51
2023-04-10T05:42:32.171Z,4.67
2023-04-10T05:47:35.548Z,4.85
2023-04-10T05:52:38.657Z,5.04
2023-04-10T05:57:41.655Z,5.12
2023-04-10T06:02:44.882Z,5.25
2023-04-10T06:07:48.700Z,5.35
2023-04-10T06:12:52.313Z,5.56
2023-04-10T06:17:55.781Z,5.83
2023-04-10T06:22:59.746Z,6.12
2023-04-10T06:28:03.164Z,6.33
2023-04-10T06:33:06.545Z,6.47
2023-04-10T06:38:09.691Z,6.57
2023-04-10T06:43:12.792Z,6.75
2023-04-10T06:48:16.096Z,7.02
2023-04-10T06:53:19.200Z,7.31
2023-04-10T06:58:22.614Z,7.55
2023-04-10T07:03:25.702Z,7.80
2023-04-10T07:08:29.034Z,8.05
2023-04-10T07:13:32.137Z,8.32
2023-04-10T07:18:36.100Z,8.54
2023-04-10T07:23:39.479Z,8.87
2023-04-10T07:28:42.608Z,9.15
2023-04-10T07:33:46.979Z,9.41
2023-04-10T07:38:50.125Z,9.67
2023-04-10T07:43:53.342Z,9.93
2023-04-10T07:48:56.741Z,10.14
2023-04-10T07:54:00.369Z,10.30
2023-04-10T07:59:03.811Z,10.49
2023-04-10T08:04:07.028Z,10.72
2023-04-10T08:09:10.519Z,10.95
2023-04-10T08:14:13.938Z,11.27
2023-04-10T08:19:21.633Z,11.64
2023-04-10T08:24:24.759Z,12.08
2023-04-10T08:29:30.632Z,12.57
2023-04-10T08:34:36.824Z,12.76
2023-04-10T08:39:44.237Z,13.18
2023-04-10T08:44:53.666Z,13.47
2023-04-10T08:50:04.049Z,13.76
2023-04-10T08:55:11.610Z,13.98
2023-04-10T09:05:38.850Z,14.11
2023-04-10T09:10:42.363Z,14.19
2023-04-10T09:16:00.474Z,14.40
2023-04-10T09:21:08.317Z,14.60
2023-04-10T09:26:32.808Z,14.81
2023-04-10T09:31:38.475Z,15.08
2023-04-10T09:36:44.203Z,15.16
2023-04-10T09:41:53.048Z,15.22
2023-04-10T09:46:56.253Z,15.32
2023-04-10T09:51:59.539Z,15.57
2023-04-10T09:57:04.600Z,15.57
2023-04-10T10:02:08.212Z,15.57
2023-04-10T10:07:11.639Z,15.63
2023-04-10T10:12:40.731Z,15.94
2023-04-10T10:18:15.790Z,16.58
2023-04-10T10:23:22.655Z,17.03
2023-04-10T10:28:28.399Z,17.43
2023-04-10T10:33:36.175Z,17.72
2023-04-10T10:38:53.892Z,18.09
2023-04-10T10:44:22.431Z,18.45
2023-04-10T10:50:03.548Z,18.85
2023-04-10T10:55:22.042Z,19.15
2023-04-10T11:00:27.210Z,19.53
2023-04-10T11:05:56.675Z,19.42
2023-04-10T11:11:06.061Z,19.63
2023-04-10T11:16:11.493Z,20.02
2023-04-10T11:21:22.789Z,19.69
2023-04-10T11:26:35.226Z,20.15
2023-04-10T11:31:39.650Z,20.02
2023-04-10T11:36:44.946Z,20.17
2023-04-10T11:41:53.263Z,20.43
2023-04-10T11:46:58.164Z,20.08
2023-04-10T11:52:01.626Z,19.56
2023-04-10T11:57:10.399Z,19.69
2023-04-10T12:02:16.264Z,19.60
2023-04-10T12:07:19.630Z,20.12
2023-04-10T12:12:37.026Z,19.81
2023-04-10T12:17:40.937Z,20.28
2023-04-10T12:22:45.717Z,21.23
2023-04-10T12:27:52.739Z,21.80
2023-04-10T12:32:55.979Z,21.89
2023-04-10T12:37:59.147Z,21.64
2023-04-10T12:43:02.354Z,20.89
2023-04-10T12:48:05.554Z,21.06
2023-04-10T12:53:09.692Z,21.57
2023-04-10T12:58:18.322Z,21.24
2023-04-10T13:03:22.371Z,21.11
2023-04-10T13:08:26.363Z,20.94
2023-04-10T13:13:33.069Z,20.92
2023-04-10T13:18:36.184Z,20.98
2023-04-10T13:23:42.770Z,21.70
2023-04-10T13:28:46.068Z,22.21
2023-04-10T13:33:49.296Z,22.17
2023-04-10T13:38:52.726Z,22.46
2023-04-10T13:43:56.449Z,23.15
2023-04-10T13:49:00.083Z,23.81
2023-04-10T13:54:05.193Z,23.24
2023-04-10T13:59:08.299Z,23.88
2023-04-10T14:04:11.633Z,23.73
2023-04-10T14:09:14.822Z,22.98
2023-04-10T14:14:18.232Z,22.60
2023-04-10T14:19:21.654Z,23.27
2023-04-10T14:24:24.853Z,23.15
2023-04-10T14:29:37.181Z,22.99
2023-04-10T14:34:42.270Z,22.26
2023-04-10T14:39:45.543Z,21.76
2023-04-10T14:44:49.877Z,21.95
2023-04-10T14:49:52.977Z,22.30
2023-04-10T14:54:56.193Z,22.45
2023-04-10T15:00:01.663Z,22.58
2023-04-10T15:05:06.086Z,22.93
2023-04-10T15:10:12.995Z,23.40
2023-04-10T15:22:11.931Z,23.80
2023-04-10T15:27:15.081Z,24.14
2023-04-10T15:32:18.471Z,24.24
2023-04-10T15:37:21.869Z,23.76
2023-04-10T15:42:25.082Z,23.16
2023-04-10T15:47:28.326Z,22.73
2023-04-10T15:52:34.172Z,22.68
2023-04-10T15:57:37.269Z,22.38
2023-04-10T16:02:40.631Z,22.34
2023-04-10T16:07:44.086Z,22.42
2023-04-10T16:12:47.517Z,22.22
2023-04-10T16:17:50.686Z,21.96
2023-04-10T16:22:53.935Z,22.00
2023-04-10T16:27:57.335Z,21.54
2023-04-10T16:33:01.148Z,21.74
2023-04-10T16:38:04.283Z,21.64
2023-04-10T16:43:07.380Z,21.27
2023-04-10T16:48:10.838Z,20.94
2023-04-10T16:53:14.037Z,20.58
2023-04-10T16:58:17.263Z,20.39
2023-04-10T17:03:20.422Z,20.27
2023-04-10T17:08:23.623Z,20.14
2023-04-10T17:13:26.736Z,19.99
2023-04-10T17:18:30.249Z,19.94
2023-04-10T17:23:33.356Z,19.73
2023-04-10T17:28:38.041Z,19.52
2023-04-10T17:33:42.451Z,19.38
2023-04-10T17:38:45.641Z,18.87
2023-04-10T17:43:48.956Z,18.28
2023-04-10T17:48:52.176Z,17.82
2023-04-10T17:53:55.684Z,17.43
2023-04-10T17:59:00.750Z,17.14
2023-04-10T18:04:04.795Z,16.54
2023-04-10T18:09:08.067Z,16.00
2023-04-10T18:14:11.168Z,15.51
2023-04-10T18:19:14.351Z,15.63
2023-04-10T18:24:17.691Z,15.49
2023-04-10T18:29:21.005Z,15.54
2023-04-10T18:34:24.030Z,15.61
2023-04-10T18:39:27.249Z,15.60
2023-04-10T18:44:31.704Z,15.58
2023-04-10T18:49:36.756Z,15.45
2023-04-10T18:54:40.017Z,15.38
2023-04-10T18:59:43.256Z,15.17
2023-04-10T19:04:46.663Z,14.90
2023-04-10T19:09:50.059Z,14.90
2023-04-10T19:14:53.160Z,14.83
2023-04-10T19:19:57.308Z,14.76
2023-04-10T19:25:00.615Z,14.69
2023-04-10T19:30:04.346Z,14.58
2023-04-10T19:35:08.359Z,14.44
2023-04-10T19:40:12.171Z,14.12
2023-04-10T19:45:16.211Z,14.07
2023-04-10T19:50:19.749Z,13.81
2023-04-10T19:55:23.224Z,13.60
2023-04-10T20:00:26.541Z,13.42
2023-04-10T20:05:30.196Z,13.13
2023-04-10T20:10:33.399Z,12.90
2023-04-10T20:15:36.671Z,12.76
2023-04-10T20:20:39.720Z,12.55
2023-04-10T20:25:43.502Z,12.34
2023-04-10T20:30:46.528Z,12.24
2023-04-10T20:35:49.653Z,12.22
2023-04-10T20:40:52.838Z,12.18
2023-04-10T20:45:56.190Z,12.18
2023-04-10T20:50:59.546Z,12.14
2023-04-10T20:56:04.934Z,12.10
2023-04-10T21:01:10.274Z,12.04
2023-04-10T21:06:15.474Z,11.92
2023-04-10T21:11:22.412Z,11.79
2023-04-10T21:16:25.759Z,11.71
2023-04-10T21:21:30.514Z,11.59
2023-04-10T21:26:33.546Z,11.43
2023-04-10T21:31:36.695Z,11.30
2023-04-10T21:36:39.810Z,11.16
2023-04-10T21:41:44.385Z,10.99
2023-04-10T21:46:47.753Z,10.90
2023-04-10T21:51:50.749Z,10.90
2023-04-10T21:56:53.851Z,10.84
2023-04-10T22:01:57.427Z,10.76
2023-04-10T22:07:00.475Z,10.65
2023-04-10T22:12:03.548Z,10.47
2023-04-10T22:17:06.633Z,10.29
2023-04-10T22:22:09.906Z,10.18
2023-04-10T22:27:13.017Z,10.10
2023-04-10T22:32:16.219Z,9.97
2023-04-10T22:37:19.222Z,9.79
2023-04-10T22:42:22.263Z,9.65
2023-04-10T22:47:25.636Z,9.47
2023-04-10T22:52:28.742Z,9.37
2023-04-10T22:57:32.151Z,9.33
2023-04-10T23:02:35.626Z,9.23
2023-04-10T23:07:38.980Z,9.20
2023-04-10T23:12:41.984Z,9.17
2023-04-10T23:17:45.133Z,8.98
2023-04-10T23:22:48.298Z,8.87
2023-04-10T23:27:52.572Z,8.81
2023-04-10T23:32:56.781Z,8.69
2023-04-10T23:37:59.794Z,8.55
2023-04-10T23:43:02.897Z,8.34
2023-04-10T23:48:09.141Z,8.18
2023-04-10T23:53:14.434Z,8.00
2023-04-10T23:58:17.745Z,8.01
